createdAt,value
2023-03-06T00:02:33.920Z,99039.31
2023-03-06T00:06:35.508Z,99038.28
2023-03-06T00:10:37.960Z,99033.03
2023-03-06T00:14:39.506Z,99032.81
2023-03-06T00:18:41.757Z,99029.03
2023-03-06T00:22:43.922Z,99028.19
2023-03-06T00:26:45.682Z,99019.19
2023-03-06T00:30:47.574Z,99007.19
2023-03-06T00:34:50.532Z,99011.81
2023-03-06T00:38:52.141Z,99004.91
2023-03-06T00:42:53.702Z,99007.41
2023-03-06T00:46:55.269Z,99000.66
2023-03-06T00:50:56.813Z,98987.34
2023-03-06T00:54:58.365Z,98987.34
2023-03-06T00:58:59.909Z,98987.34
2023-03-06T01:03:01.527Z,98982.56
2023-03-06T01:07:03.238Z,98977.59
2023-03-06T01:11:05.922Z,98968.78
2023-03-06T01:15:08.147Z,98968.78
2023-03-06T01:19:09.730Z,98962.03
2023-03-06T01:23:11.269Z,98953.25
2023-03-06T01:27:12.806Z,98947.19
2023-03-06T01:31:14.654Z,98939.47
2023-03-06T01:35:16.392Z,98941.13
2023-03-06T01:39:18.003Z,98934.25
2023-03-06T01:43:27.148Z,98924.16
2023-03-06T01:47:29.290Z,98917.03
2023-03-06T01:51:36.388Z,98921.06
2023-03-06T01:55:38.972Z,98906.81
2023-03-06T01:59:42.754Z,98906.00
2023-03-06T02:03:47.357Z,98911.59
2023-03-06T02:07:50.485Z,98903.66
2023-03-06T02:11:52.161Z,98901.13
2023-03-06T02:15:53.790Z,98890.22
2023-03-06T02:20:13.772Z,98889.75
2023-03-06T02:24:38.877Z,98890.38
2023-03-06T02:28:40.865Z,98890.13
2023-03-06T02:32:42.434Z,98887.63
2023-03-06T02:36:53.864Z,98879.53
2023-03-06T02:40:58.112Z,98876.81
2023-03-06T02:45:05.684Z,98868.25
2023-03-06T02:49:08.041Z,98859.56
2023-03-06T02:53:11.285Z,98859.81
2023-03-06T02:57:12.884Z,98852.31
2023-03-06T03:01:14.991Z,98858.03
2023-03-06T03:05:17.858Z,98860.41
2023-03-06T03:09:24.608Z,98860.00
2023-03-06T03:13:26.542Z,98852.19
2023-03-06T03:17:28.192Z,98852.41
2023-03-06T03:21:29.768Z,98845.28
2023-03-06T03:25:31.543Z,98841.75
2023-03-06T03:29:33.350Z,98850.84
2023-03-06T03:33:35.164Z,98835.34
2023-03-06T03:37:37.463Z,98840.81
2023-03-06T03:41:39.711Z,98836.53
2023-03-06T03:45:43.392Z,98839.25
2023-03-06T03:49:45.333Z,98835.47
2023-03-06T03:53:47.654Z,98838.19
2023-03-06T03:57:53.432Z,98834.06
2023-03-06T04:01:56.149Z,98825.72
2023-03-06T04:05:59.351Z,98825.13
2023-03-06T04:10:04.098Z,98811.84
2023-03-06T04:14:08.310Z,98808.16
2023-03-06T04:18:10.180Z,98804.25
2023-03-06T04:22:11.960Z,98798.19
2023-03-06T04:26:14.534Z,98797.81
2023-03-06T04:30:16.504Z,98804.34
2023-03-06T04:34:18.380Z,98799.38
2023-03-06T04:38:21.316Z,98788.22
2023-03-06T04:42:23.483Z,98782.06
2023-03-06T04:46:31.294Z,98778.59
2023-03-06T04:50:33.203Z,98783.78
2023-03-06T04:54:35.490Z,98777.97
2023-03-06T04:58:37.597Z,98769.31
2023-03-06T05:02:41.604Z,98778.03
2023-03-06T05:06:43.360Z,98771.81
2023-03-06T05:10:45.581Z,98777.38
2023-03-06T05:14:48.112Z,98773.69
2023-03-06T05:18:50.751Z,98774.97
2023-03-06T05:22:52.428Z,98767.66
2023-03-06T05:26:54.124Z,98768.09
2023-03-06T05:30:56.215Z,98769.97
2023-03-06T05:34:57.803Z,98759.53
2023-03-06T05:38:59.463Z,98764.31
2023-03-06T05:43:01.023Z,98763.94
2023-03-06T05:47:02.878Z,98760.84
2023-03-06T05:51:05.690Z,98757.28
2023-03-06T05:55:11.491Z,98752.66
2023-03-06T05:59:13.179Z,98757.06
2023-03-06T06:03:14.814Z,98757.06
2023-03-06T06:07:17.106Z,98758.72
2023-03-06T06:11:20.866Z,98753.88
2023-03-06T06:15:22.860Z,98758.72
2023-03-06T06:19:24.543Z,98753.28
2023-03-06T06:23:26.151Z,98755.06
2023-03-06T06:27:27.691Z,98760.88
2023-03-06T06:31:29.701Z,98762.31
2023-03-06T06:35:38.509Z,98766.25
2023-03-06T06:39:40.804Z,98771.31
2023-03-06T06:43:42.491Z,98768.59
2023-03-06T06:47:44.629Z,98773.81
2023-03-06T06:51:47.220Z,98768.38
2023-03-06T06:55:49.473Z,98771.00
2023-03-06T06:59:53.698Z,98770.31
2023-03-06T07:03:56.559Z,98769.84
2023-03-06T07:07:58.468Z,98776.34
2023-03-06T07:12:00.108Z,98773.41
2023-03-06T07:16:05.457Z,98780.84
2023-03-06T07:20:10.710Z,98779.00
2023-03-06T07:24:12.905Z,98781.25
2023-03-06T07:28:18.684Z,98774.75
2023-03-06T07:32:25.530Z,98768.03
2023-03-06T07:36:29.062Z,98772.91
2023-03-06T07:40:34.655Z,98774.69
2023-03-06T07:44:41.142Z,98769.56
2023-03-06T07:48:45.480Z,98772.16
2023-03-06T07:52:50.611Z,98771.47
2023-03-06T07:56:56.414Z,98780.50
2023-03-06T08:01:00.234Z,98787.50
2023-03-06T08:05:04.243Z,98782.41
2023-03-06T08:09:06.408Z,98780.16
2023-03-06T08:13:08.086Z,98780.84
2023-03-06T08:17:09.681Z,98781.44
2023-03-06T08:21:16.677Z,98798.19
2023-03-06T08:25:21.403Z,98790.09
2023-03-06T08:29:22.982Z,98787.50
2023-03-06T08:33:25.200Z,98797.94
2023-03-06T08:37:28.423Z,98799.94
2023-03-06T08:41:32.490Z,98796.50
2023-03-06T08:45:36.002Z,98802.78
2023-03-06T08:49:40.369Z,98800.75
2023-03-06T08:53:44.532Z,98802.31
2023-03-06T08:57:47.394Z,98811.94
2023-03-06T09:01:49.022Z,98812.88
2023-03-06T09:05:50.999Z,98815.94
2023-03-06T09:09:58.387Z,98820.84
2023-03-06T09:14:03.340Z,98820.81
2023-03-06T09:18:04.896Z,98818.06
2023-03-06T09:22:08.555Z,98812.63
2023-03-06T09:26:14.552Z,98811.16
2023-03-06T09:30:19.349Z,98810.13
2023-03-06T09:34:21.349Z,98821.81
2023-03-06T09:38:26.193Z,98806.69
2023-03-06T09:42:30.327Z,98811.94
2023-03-06T09:46:52.671Z,98817.09
2023-03-06T09:51:08.052Z,98817.19
2023-03-06T09:55:15.857Z,98816.41
2023-03-06T09:59:24.493Z,98808.47
2023-03-06T10:03:38.058Z,98811.16
2023-03-06T10:08:07.798Z,98812.31
2023-03-06T10:12:35.293Z,98814.91
2023-03-06T10:16:37.460Z,98811.44
2023-03-06T10:20:54.484Z,98808.00
2023-03-06T10:25:19.820Z,98803.44
2023-03-06T10:29:56.324Z,98811.22
2023-03-06T10:34:15.404Z,98807.06
2023-03-06T10:38:32.715Z,98800.69
2023-03-06T10:42:34.672Z,98801.31
2023-03-06T10:46:44.379Z,98799.31
2023-03-06T10:50:46.272Z,98812.63
2023-03-06T10:54:50.678Z,98796.78
2023-03-06T10:59:19.342Z,98793.19
2023-03-06T11:03:24.339Z,98802.72
2023-03-06T11:07:29.351Z,98806.38
2023-03-06T11:11:37.606Z,98794.72
2023-03-06T11:15:40.320Z,98797.75
2023-03-06T11:19:43.649Z,98790.03
2023-03-06T11:23:47.323Z,98790.50
2023-03-06T11:28:27.873Z,98783.94
2023-03-06T11:32:36.835Z,98771.28
2023-03-06T11:36:56.505Z,98776.16
2023-03-06T11:41:01.995Z,98785.16
2023-03-06T11:45:34.074Z,98767.38
2023-03-06T11:49:44.775Z,98756.00
2023-03-06T11:53:48.852Z,98761.25
2023-03-06T11:57:55.059Z,98752.69
2023-03-06T12:02:02.974Z,98741.13
2023-03-06T12:06:29.413Z,98747.13
2023-03-06T12:10:41.538Z,98740.03
2023-03-06T12:15:34.553Z,98737.09
2023-03-06T12:19:39.125Z,98746.66
2023-03-06T12:24:02.400Z,98743.44
2023-03-06T12:28:29.100Z,98724.59
2023-03-06T12:32:55.597Z,98731.88
2023-03-06T12:37:42.974Z,98719.31
2023-03-06T12:42:23.215Z,98721.75
2023-03-06T12:46:28.105Z,98706.56
2023-03-06T12:50:33.282Z,98711.50
2023-03-06T12:54:40.619Z,98720.25
2023-03-06T12:58:51.444Z,98721.34
2023-03-06T13:03:11.566Z,98715.91
2023-03-06T13:07:27.853Z,98709.06
2023-03-06T13:12:03.440Z,98711.78
2023-03-06T13:16:32.942Z,98702.53
2023-03-06T13:20:46.292Z,98711.84
2023-03-06T13:24:49.471Z,98687.38
2023-03-06T13:28:54.288Z,98690.38
2023-03-06T13:32:56.270Z,98696.16
2023-03-06T13:37:16.780Z,98699.16
2023-03-06T13:41:21.279Z,98688.66
2023-03-06T13:45:29.285Z,98686.09
2023-03-06T13:49:31.960Z,98679.13
2023-03-06T13:53:46.809Z,98678.69
2023-03-06T13:58:14.374Z,98671.13
2023-03-06T14:02:39.884Z,98678.63
2023-03-06T14:06:51.304Z,98685.19
2023-03-06T14:11:07.293Z,98673.94
2023-03-06T14:15:38.342Z,98676.41
2023-03-06T14:19:42.569Z,98666.91
2023-03-06T14:23:46.433Z,98661.84
2023-03-06T14:27:54.945Z,98661.94
2023-03-06T14:32:00.918Z,98654.88
2023-03-06T14:36:09.850Z,98644.84
2023-03-06T14:40:13.893Z,98649.19
2023-03-06T14:44:26.566Z,98648.78
2023-03-06T14:48:42.967Z,98653.19
2023-03-06T14:52:46.206Z,98657.84
2023-03-06T14:56:54.440Z,98662.75
2023-03-06T15:01:01.336Z,98659.19
2023-03-06T15:05:11.686Z,98656.47
2023-03-06T15:09:27.252Z,98659.97
2023-03-06T15:13:31.644Z,98651.50
2023-03-06T15:17:43.231Z,98657.06
2023-03-06T15:21:48.613Z,98650.00
2023-03-06T15:26:01.034Z,98650.00
2023-03-06T15:30:27.724Z,98648.91
2023-03-06T15:34:30.250Z,98645.56
2023-03-06T15:38:41.984Z,98652.63
2023-03-06T15:42:43.579Z,98651.31
2023-03-06T15:46:45.556Z,98646.06
2023-03-06T15:50:47.281Z,98655.59
2023-03-06T15:54:50.648Z,98670.28
2023-03-06T15:58:54.216Z,98665.41
2023-03-06T16:02:57.069Z,98665.19
2023-03-06T16:06:58.650Z,98655.59
2023-03-06T16:11:00.286Z,98661.94
2023-03-06T16:15:05.247Z,98663.41
2023-03-06T16:19:25.303Z,98656.69
2023-03-06T16:23:28.217Z,98668.91
2023-03-06T16:27:30.046Z,98660.38
2023-03-06T16:31:41.315Z,98668.25
2023-03-06T16:35:44.577Z,98662.09
2023-03-06T16:39:46.282Z,98662.09
2023-03-06T16:43:49.404Z,98670.53
2023-03-06T16:47:51.691Z,98676.34
2023-03-06T16:51:54.155Z,98680.13
2023-03-06T16:55:56.172Z,98674.09
2023-03-06T16:59:57.840Z,98671.91
2023-03-06T17:03:59.963Z,98671.09
2023-03-06T17:08:01.940Z,98672.66
2023-03-06T17:12:03.751Z,98679.09
2023-03-06T17:16:06.293Z,98679.59
2023-03-06T17:20:08.750Z,98682.19
2023-03-06T17:24:11.177Z,98693.00
2023-03-06T17:28:13.813Z,98686.97
2023-03-06T17:32:15.430Z,98690.41
2023-03-06T17:36:19.440Z,98684.63
2023-03-06T17:40:21.476Z,98690.28
2023-03-06T17:44:23.197Z,98696.63
2023-03-06T17:48:24.880Z,98701.00
2023-03-06T17:52:26.603Z,98700.88
2023-03-06T17:56:28.445Z,98702.44
2023-03-06T18:00:30.054Z,98705.03
2023-03-06T18:04:31.668Z,98708.84
2023-03-06T18:08:34.448Z,98704.56
2023-03-06T18:12:36.541Z,98699.59
2023-03-06T18:16:38.502Z,98711.72
2023-03-06T18:20:41.665Z,98702.44
2023-03-06T18:24:43.580Z,98705.06
2023-03-06T18:28:48.051Z,98710.41
2023-03-06T18:32:49.845Z,98713.97
2023-03-06T18:36:53.009Z,98711.81
2023-03-06T18:40:54.664Z,98709.94
2023-03-06T18:44:56.407Z,98709.06
2023-03-06T18:48:58.155Z,98706.00
2023-03-06T18:53:00.151Z,98702.09
2023-03-06T18:57:01.881Z,98713.69
2023-03-06T19:01:08.357Z,98709.06
2023-03-06T19:05:10.993Z,98706.25
2023-03-06T19:09:13.194Z,98701.25
2023-03-06T19:13:15.172Z,98696.38
2023-03-06T19:17:17.528Z,98693.44
2023-03-06T19:21:21.410Z,98694.59
2023-03-06T19:25:23.003Z,98702.56
2023-03-06T19:29:24.618Z,98692.25
2023-03-06T19:33:26.575Z,98698.41
2023-03-06T19:37:30.130Z,98694.03
2023-03-06T19:41:33.112Z,98692.47
2023-03-06T19:45:36.787Z,98697.31
2023-03-06T19:49:38.858Z,98690.22
2023-03-06T19:53:40.972Z,98692.81
2023-03-06T19:57:43.412Z,98684.06
2023-03-06T20:01:45.615Z,98683.94
2023-03-06T20:05:47.635Z,98685.22
2023-03-06T20:09:50.124Z,98680.84
2023-03-06T20:13:51.789Z,98676.69
2023-03-06T20:17:56.410Z,98669.31
2023-03-06T20:21:58.249Z,98662.44
2023-03-06T20:26:05.171Z,98659.59
2023-03-06T20:30:08.696Z,98658.88
2023-03-06T20:34:10.935Z,98659.09
2023-03-06T20:38:13.082Z,98648.75
2023-03-06T20:42:15.087Z,98653.47
2023-03-06T20:46:18.144Z,98648.03
2023-03-06T20:50:19.731Z,98648.63
2023-03-06T20:54:21.972Z,98647.78
2023-03-06T20:58:26.446Z,98649.00
2023-03-06T21:02:28.056Z,98648.28
2023-03-06T21:06:30.613Z,98646.16
2023-03-06T21:10:32.188Z,98640.09
2023-03-06T21:14:34.508Z,98638.91
2023-03-06T21:18:36.997Z,98632.88
2023-03-06T21:22:38.847Z,98635.72
2023-03-06T21:26:41.334Z,98645.19
2023-03-06T21:30:44.566Z,98643.03
2023-03-06T21:35:09.420Z,98627.13
2023-03-06T21:39:30.394Z,98632.78
2023-03-06T21:43:31.935Z,98631.16
2023-03-06T21:47:38.631Z,98611.94
2023-03-06T21:51:40.599Z,98611.59
2023-03-06T21:55:42.146Z,98615.22
2023-03-06T21:59:43.700Z,98614.88
2023-03-06T22:03:45.546Z,98602.75
2023-03-06T22:07:47.172Z,98603.38
2023-03-06T22:11:48.730Z,98587.28
2023-03-06T22:15:55.176Z,98588.31
2023-03-06T22:24:53.521Z,98591.41
2023-03-06T22:28:56.745Z,98588.84
2023-03-06T22:32:58.673Z,98586.13
2023-03-06T22:37:00.606Z,98590.63
2023-03-06T22:41:02.914Z,98582.59
2023-03-06T22:45:05.243Z,98578.72
2023-03-06T22:49:06.999Z,98579.19
2023-03-06T22:53:08.610Z,98578.88
2023-03-06T22:57:10.148Z,98570.38
2023-03-06T23:01:19.607Z,98570.00
2023-03-06T23:05:21.482Z,98562.53
2023-03-06T23:09:23.375Z,98566.81
2023-03-06T23:13:43.364Z,98569.66
2023-03-06T23:18:04.321Z,98558.28
2023-03-06T23:22:24.479Z,98561.47
2023-03-06T23:26:44.339Z,98566.47
2023-03-06T23:30:45.944Z,98562.44
2023-03-06T23:34:50.398Z,98569.91
2023-03-06T23:38:52.015Z,98562.09
2023-03-06T23:42:53.603Z,98560.44
2023-03-06T23:46:55.147Z,98559.84
2023-03-06T23:50:57.228Z,98559.50
2023-03-06T23:54:58.939Z,98560.53
2023-03-06T23:59:00.575Z,98562.22
